Time;durP1;ratioP1;P1;durP2;ratioP2;P2;SDS_P1;SDS_P2;PMS_P1;PMS_P2;Temp;Humidity;BMP_temperature;BMP_pressure;BME280_temperature;BME280_humidity;BME280_pressure;Samples;Min_cycle;Max_cycle;Signal;HPM_P1;HPM_P2
2022/03/02 00:01:26;;;;;;;17.67;8.77;;;;;;;-0.73;55.77;97109.88;4889776;29;20638;-75
2022/03/02 00:03:53;;;;;;;20.55;10.15;;;;;;;-0.72;55.63;97111.53;4890752;29;20136;-78
2022/03/02 00:06:21;;;;;;;20.10;9.85;;;;;;;-0.71;56.77;97110.50;4892039;29;20059;-77
2022/03/02 00:08:47;;;;;;;16.48;8.73;;;;;;;-0.72;56.75;97108.88;4890842;29;20524;-79
2022/03/02 00:11:16;;;;;;;20.00;9.23;;;;;;;-0.75;56.45;97111.97;4889432;29;20055;-77
2022/03/02 00:13:43;;;;;;;17.67;9.45;;;;;;;-0.88;57.09;97113.81;4891175;29;20099;-78
2022/03/02 00:16:09;;;;;;;15.80;8.57;;;;;;;-0.89;56.93;97109.50;4889612;29;20056;-78
2022/03/02 00:18:36;;;;;;;17.63;8.70;;;;;;;-0.90;57.81;97107.03;4891175;29;20048;-78
2022/03/02 00:21:02;;;;;;;18.48;9.52;;;;;;;-0.94;58.11;97101.34;4889460;29;20520;-78
2022/03/02 00:23:30;;;;;;;18.25;9.77;;;;;;;-0.96;58.52;97098.06;4893558;29;20059;-79
2022/03/02 00:25:57;;;;;;;54.75;21.13;;;;;;;-1.01;57.86;97100.59;4893932;29;20104;-79
2022/03/02 00:28:24;;;;;;;42.78;16.95;;;;;;;-1.11;57.63;97095.78;4893622;29;20587;-78
2022/03/02 00:30:50;;;;;;;31.85;13.80;;;;;;;-1.18;57.69;97088.91;4893784;29;20135;-78
2022/03/02 00:33:17;;;;;;;29.55;13.43;;;;;;;-1.24;58.01;97087.16;4892943;29;20068;-78
2022/03/02 00:35:44;;;;;;;28.70;14.25;;;;;;;-1.24;57.83;97084.47;4892212;29;20060;-78
2022/03/02 00:38:11;;;;;;;33.45;14.50;;;;;;;-1.30;57.89;97085.38;4892786;29;20059;-79
2022/03/02 00:40:39;;;;;;;39.63;16.58;;;;;;;-1.31;58.23;97071.19;4893862;29;20548;-79
2022/03/02 00:43:06;;;;;;;31.42;13.43;;;;;;;-1.26;57.83;97078.53;4891383;29;20059;-77
2022/03/02 00:45:33;;;;;;;24.73;12.02;;;;;;;-1.20;58.23;97070.44;4892932;29;20056;-78
2022/03/02 00:48:01;;;;;;;23.90;11.02;;;;;;;-1.14;58.96;97079.41;4893453;29;20057;-78
2022/03/02 00:50:28;;;;;;;24.27;11.82;;;;;;;-1.12;58.41;97082.66;4892981;29;20064;-79
2022/03/02 00:52:55;;;;;;;21.20;10.82;;;;;;;-1.22;58.28;97085.06;4893750;29;20060;-78
2022/03/02 00:55:22;;;;;;;22.33;9.77;;;;;;;-1.28;58.59;97077.94;4893105;29;20072;-79
2022/03/02 00:57:50;;;;;;;24.65;11.70;;;;;;;-1.28;58.87;97067.25;4894213;29;20059;-79
2022/03/02 01:00:17;;;;;;;26.88;11.70;;;;;;;-1.30;58.96;97066.69;4892659;29;20063;-78
2022/03/02 01:02:45;;;;;;;28.52;12.23;;;;;;;-1.30;58.74;97058.66;4893690;29;20071;-78
2022/03/02 01:05:13;;;;;;;29.85;12.57;;;;;;;-1.26;59.32;97054.47;4892477;29;20057;-76
2022/03/02 01:07:40;;;;;;;24.98;12.40;;;;;;;-1.25;60.23;97051.59;4892083;29;20075;-78
2022/03/02 01:10:07;;;;;;;22.98;10.27;;;;;;;-1.23;60.77;97048.69;4892459;29;20057;-79
2022/03/02 01:12:35;;;;;;;19.38;9.27;;;;;;;-1.25;59.77;97045.41;4893435;29;20053;-77
2022/03/02 01:15:05;;;;;;;26.10;10.93;;;;;;;-1.31;59.60;97036.44;4892777;29;20057;-77
2022/03/02 01:17:32;;;;;;;22.30;10.10;;;;;;;-1.29;59.47;97039.72;4893112;29;20109;-76
2022/03/02 01:19:59;;;;;;;19.77;10.30;;;;;;;-1.29;59.65;97031.72;4893431;29;20065;-76
2022/03/02 01:22:25;;;;;;;17.75;9.48;;;;;;;-1.28;59.54;97032.53;4892035;29;20508;-77
2022/03/02 01:24:52;;;;;;;17.40;9.32;;;;;;;-1.30;59.82;97023.94;4893438;29;20045;-76
2022/03/02 01:27:18;;;;;;;18.60;9.25;;;;;;;-1.29;59.62;97028.22;4892814;29;20049;-77
2022/03/02 01:29:45;;;;;;;17.23;9.10;;;;;;;-1.31;60.24;97020.41;4893529;29;20049;-77
2022/03/02 01:32:13;;;;;;;14.82;8.20;;;;;;;-1.27;59.99;97020.78;4891724;29;20055;-78
2022/03/02 01:34:39;;;;;;;17.38;9.02;;;;;;;-1.28;59.38;97019.97;4891951;29;20052;-77
2022/03/02 01:37:06;;;;;;;17.08;8.57;;;;;;;-1.26;59.43;97019.75;4890425;29;20068;-76
2022/03/02 01:39:33;;;;;;;14.80;8.25;;;;;;;-1.24;59.66;97015.00;4892637;29;20052;-77
2022/03/02 01:41:59;;;;;;;15.25;8.05;;;;;;;-1.27;59.20;97008.25;4892495;29;20056;-77
2022/03/02 01:44:29;;;;;;;17.08;8.60;;;;;;;-1.29;59.53;97013.00;4891776;29;20052;-76
2022/03/02 01:46:56;;;;;;;14.90;8.25;;;;;;;-1.29;58.89;97007.66;4893326;29;20143;-77
2022/03/02 01:49:24;;;;;;;19.95;9.68;;;;;;;-1.32;58.67;97008.91;4891439;29;20056;-77
2022/03/02 01:51:50;;;;;;;18.75;9.77;;;;;;;-1.44;59.04;97018.75;4893126;29;20108;-77
2022/03/02 01:54:17;;;;;;;18.80;9.43;;;;;;;-1.60;59.96;97014.84;4891381;29;20052;-77
2022/03/02 01:56:44;;;;;;;19.13;9.27;;;;;;;-1.70;60.23;97019.88;4892848;29;20075;-78
2022/03/02 01:59:11;;;;;;;18.15;9.10;;;;;;;-1.81;60.82;97022.50;4891796;29;20057;-77
2022/03/02 02:01:37;;;;;;;18.02;8.68;;;;;;;-1.92;61.14;97032.06;4892474;29;20099;-77
2022/03/02 02:04:05;;;;;;;14.18;8.15;;;;;;;-1.93;61.09;97039.25;4891791;29;20591;-77
2022/03/02 02:06:34;;;;;;;15.65;8.27;;;;;;;-1.91;60.99;97026.50;4890142;29;20044;-78
2022/03/02 02:09:02;;;;;;;18.00;8.52;;;;;;;-1.87;60.85;97027.69;4892538;29;20052;-77
2022/03/02 02:11:30;;;;;;;14.70;8.57;;;;;;;-1.84;60.64;97021.88;4891277;29;20127;-77
2022/03/02 02:13:57;;;;;;;16.00;8.30;;;;;;;-1.94;61.03;97024.25;4892636;29;20130;-77
2022/03/02 02:16:24;;;;;;;15.93;9.07;;;;;;;-1.95;61.21;97019.16;4891073;29;20055;-77
2022/03/02 02:18:51;;;;;;;16.25;8.20;;;;;;;-1.93;61.64;96999.22;4892060;29;20056;-76
2022/03/02 02:21:19;;;;;;;17.33;8.82;;;;;;;-1.89;61.67;97007.56;4891238;29;20052;-77
2022/03/02 02:23:47;;;;;;;16.33;8.63;;;;;;;-1.89;61.55;96997.72;4891950;29;20048;-77
2022/03/02 02:26:14;;;;;;;18.33;8.68;;;;;;;-1.91;61.28;97002.47;4891411;29;20504;-78
2022/03/02 02:28:41;;;;;;;16.95;8.80;;;;;;;-1.99;61.90;96992.06;4891638;29;20056;-76
2022/03/02 02:31:08;;;;;;;19.70;11.02;;;;;;;-1.95;62.19;96987.13;4891430;29;20614;-78
2022/03/02 02:33:34;;;;;;;16.08;8.20;;;;;;;-1.93;62.25;96990.38;4891026;29;20053;-77
2022/03/02 02:36:01;;;;;;;18.80;8.73;;;;;;;-1.92;61.84;96982.16;4890316;29;20052;-77
2022/03/02 02:38:29;;;;;;;16.85;8.82;;;;;;;-1.92;61.58;96978.69;4891075;29;20071;-77
2022/03/02 02:40:56;;;;;;;16.38;8.65;;;;;;;-1.93;61.95;96974.34;4891755;29;20539;-77
2022/03/02 02:43:25;;;;;;;16.63;8.82;;;;;;;-1.93;61.84;96980.53;4890869;29;20059;-77
2022/03/02 02:45:52;;;;;;;17.58;8.60;;;;;;;-1.95;61.43;96993.28;4891397;29;20056;-77
2022/03/02 02:48:18;;;;;;;13.15;8.07;;;;;;;-1.99;61.30;96992.06;4890920;29;20048;-77
2022/03/02 02:50:45;;;;;;;17.48;9.10;;;;;;;-2.02;61.50;96987.19;4891224;29;20055;-77
2022/03/02 02:53:13;;;;;;;17.08;8.55;;;;;;;-2.05;61.99;96987.63;4890997;29;20064;-77
2022/03/02 02:55:43;;;;;;;19.08;9.20;;;;;;;-2.09;62.53;96978.44;4891182;29;20053;-78
2022/03/02 02:58:10;;;;;;;15.45;8.23;;;;;;;-2.08;62.59;96982.75;4891344;29;20496;-79
2022/03/02 03:00:40;;;;;;;16.50;9.05;;;;;;;-2.08;62.57;96982.75;4890845;29;20056;-78
2022/03/02 03:03:07;;;;;;;19.10;8.77;;;;;;;-2.09;62.03;96986.44;4891144;29;20530;-78
2022/03/02 03:05:34;;;;;;;16.45;8.27;;;;;;;-2.13;62.16;96985.28;4889251;29;20465;-80
2022/03/02 03:08:03;;;;;;;14.38;8.05;;;;;;;-2.17;61.95;96984.09;4892143;29;20064;-78
2022/03/02 03:10:31;;;;;;;14.98;8.52;;;;;;;-2.19;62.00;96978.16;4891387;29;20055;-80
2022/03/02 03:12:59;;;;;;;21.75;9.73;;;;;;;-2.21;62.54;96972.22;4891351;29;20058;-77
2022/03/02 03:15:25;;;;;;;16.27;8.55;;;;;;;-2.24;62.65;96978.00;4891259;29;20056;-77
2022/03/02 03:17:52;;;;;;;16.65;8.45;;;;;;;-2.27;62.34;96963.25;4891110;29;20060;-77
2022/03/02 03:20:21;;;;;;;17.38;8.60;;;;;;;-2.27;62.26;96970.44;4891421;29;20056;-78
2022/03/02 03:22:48;;;;;;;19.33;8.15;;;;;;;-2.28;62.37;96966.16;4891015;29;20055;-77
2022/03/02 03:25:15;;;;;;;15.68;8.43;;;;;;;-2.27;62.57;96962.44;4891320;29;20056;-77
2022/03/02 03:27:43;;;;;;;20.45;8.32;;;;;;;-2.26;62.90;96958.72;4891540;29;20048;-78
2022/03/02 03:30:14;;;;;;;17.88;8.75;;;;;;;-2.25;63.13;96952.34;4891242;29;20060;-78
2022/03/02 03:32:41;;;;;;;16.63;8.18;;;;;;;-2.23;63.29;96956.44;4890847;29;20053;-77
2022/03/02 03:35:10;;;;;;;16.60;8.75;;;;;;;-2.23;62.83;96963.63;4890567;29;20055;-77
2022/03/02 03:37:36;;;;;;;17.50;8.32;;;;;;;-2.21;62.65;96966.88;4889724;29;20059;-77
2022/03/02 03:40:04;;;;;;;16.17;8.48;;;;;;;-2.19;62.70;96972.84;4890183;29;20052;-77
2022/03/02 03:42:30;;;;;;;15.60;8.52;;;;;;;-2.19;63.30;96964.81;4887472;29;20047;-78
2022/03/02 03:44:57;;;;;;;17.17;8.23;;;;;;;-2.19;63.15;96970.16;4890512;29;20056;-77
2022/03/02 03:47:25;;;;;;;17.05;7.90;;;;;;;-2.20;63.39;96966.66;4891125;29;20056;-78
2022/03/02 03:49:51;;;;;;;14.48;7.80;;;;;;;-2.17;63.30;96962.75;4890572;29;20439;-77
2022/03/02 03:52:18;;;;;;;16.25;8.63;;;;;;;-2.16;63.00;96959.03;4890518;29;20057;-80
2022/03/02 03:54:45;;;;;;;17.05;8.32;;;;;;;-2.16;63.18;96959.03;4890767;29;20415;-79
2022/03/02 03:57:11;;;;;;;15.65;8.43;;;;;;;-2.20;62.89;96955.16;4891364;29;20059;-78
2022/03/02 03:59:38;;;;;;;16.88;8.13;;;;;;;-2.27;63.00;96957.09;4894693;29;20052;-79
2022/03/02 04:02:05;;;;;;;15.32;8.05;;;;;;;-2.25;63.28;96960.34;4893658;29;20053;-77
2022/03/02 04:04:33;;;;;;;14.98;8.45;;;;;;;-2.25;63.03;96949.69;4894980;29;20075;-77
2022/03/02 04:07:00;;;;;;;18.33;8.30;;;;;;;-2.25;63.19;96960.34;4894068;29;20060;-77
2022/03/02 04:09:26;;;;;;;14.65;8.18;;;;;;;-2.25;63.04;96955.00;4894944;29;20045;-78
2022/03/02 04:11:53;;;;;;;16.30;8.15;;;;;;;-2.25;62.87;96949.69;4895185;29;20055;-78
2022/03/02 04:14:19;;;;;;;14.10;7.80;;;;;;;-2.24;63.04;96946.00;4895943;29;20063;-77
2022/03/02 04:16:46;;;;;;;15.90;8.23;;;;;;;-2.34;62.73;96941.19;4894849;29;20044;-79
2022/03/02 04:19:12;;;;;;;15.32;8.02;;;;;;;-2.36;62.77;96932.56;4894892;29;20057;-79
2022/03/02 04:21:40;;;;;;;17.80;8.20;;;;;;;-2.37;63.04;96934.41;4894827;29;20131;-79
2022/03/02 04:24:07;;;;;;;16.48;8.52;;;;;;;-2.37;63.45;96926.41;4894734;29;20136;-78
2022/03/02 04:26:33;;;;;;;13.82;7.60;;;;;;;-2.38;63.44;96921.31;4895323;29;20051;-79
2022/03/02 04:29:00;;;;;;;13.68;7.93;;;;;;;-2.37;63.76;96921.09;4894337;29;20057;-78
2022/03/02 04:31:27;;;;;;;17.80;8.20;;;;;;;-2.32;63.86;96919.59;4894703;29;20048;-78
2022/03/02 04:33:53;;;;;;;18.92;8.43;;;;;;;-2.31;63.70;96907.91;4894041;29;20100;-79
2022/03/02 04:36:20;;;;;;;16.05;8.07;;;;;;;-2.23;63.84;96910.28;4894812;29;20048;-78
2022/03/02 04:38:48;;;;;;;17.33;8.75;;;;;;;-2.20;63.85;96904.47;4894878;29;20056;-78
2022/03/02 04:41:14;;;;;;;16.15;8.18;;;;;;;-2.15;63.42;96899.28;4895613;29;20053;-78
2022/03/02 04:43:41;;;;;;;17.45;8.20;;;;;;;-2.12;63.16;96902.31;4894242;29;20049;-79
2022/03/02 04:46:07;;;;;;;16.02;7.63;;;;;;;-2.10;62.70;96899.44;4893661;29;20056;-79
2022/03/02 04:48:35;;;;;;;16.77;7.32;;;;;;;-2.08;62.68;96897.38;4895148;29;20055;-80
2022/03/02 04:51:02;;;;;;;12.50;7.07;;;;;;;-2.05;62.61;96906.75;4893911;29;20053;-79
2022/03/02 04:53:28;;;;;;;18.02;8.48;;;;;;;-2.03;62.31;96900.19;4894484;29;20127;-78
2022/03/02 04:55:56;;;;;;;16.80;7.60;;;;;;;-2.02;62.28;96891.13;4893513;29;20057;-79
2022/03/02 04:58:23;;;;;;;16.55;7.20;;;;;;;-2.04;62.78;96887.84;4894072;29;20049;-78
2022/03/02 05:00:49;;;;;;;16.70;8.18;;;;;;;-2.02;62.52;96891.13;4893330;29;20072;-79
2022/03/02 05:03:16;;;;;;;16.42;7.18;;;;;;;-2.04;62.03;96893.19;4894067;29;20167;-78
2022/03/02 05:05:42;;;;;;;14.43;7.22;;;;;;;-2.03;61.75;96900.19;4893691;29;20528;-77
2022/03/02 05:08:09;;;;;;;14.82;7.53;;;;;;;-1.99;61.69;96892.50;4893605;29;20049;-77
2022/03/02 05:10:36;;;;;;;12.48;7.43;;;;;;;-1.98;62.01;96897.66;4894493;29;20052;-77
2022/03/02 05:13:04;;;;;;;17.48;7.65;;;;;;;-1.99;61.91;96890.66;4894027;29;20712;-80
2022/03/02 05:15:31;;;;;;;16.75;7.82;;;;;;;-1.97;61.96;96898.47;4894126;29;20071;-77
2022/03/02 05:17:59;;;;;;;14.93;8.05;;;;;;;-1.96;62.62;96894.75;4893290;29;20566;-79
2022/03/02 05:20:25;;;;;;;15.25;7.57;;;;;;;-1.94;62.30;96893.47;4893732;29;20587;-78
2022/03/02 05:22:52;;;;;;;17.15;7.10;;;;;;;-1.90;62.33;96883.97;4892812;29;20076;-77
2022/03/02 05:25:19;;;;;;;17.08;7.85;;;;;;;-1.89;62.27;96888.28;4893313;29;20527;-77
2022/03/02 05:27:46;;;;;;;19.63;7.80;;;;;;;-1.87;62.68;96888.88;4892676;29;20053;-77
2022/03/02 05:30:14;;;;;;;13.40;7.63;;;;;;;-1.85;63.25;96894.78;4893032;29;20056;-77
2022/03/02 05:32:41;;;;;;;14.48;7.60;;;;;;;-1.84;63.47;96893.75;4892888;29;20055;-76
2022/03/02 05:35:09;;;;;;;16.17;8.35;;;;;;;-1.86;62.82;96901.19;4892431;29;20048;-77
2022/03/02 05:37:42;;;;;;;14.57;7.90;;;;;;;-1.93;62.85;96899.63;4893167;29;20459;-78
2022/03/02 05:40:10;;;;;;;16.92;8.32;;;;;;;-1.94;62.92;96909.47;4896854;29;20745;-76
2022/03/02 05:42:37;;;;;;;20.23;8.85;;;;;;;-1.94;62.99;96904.16;4890100;29;20068;-78
2022/03/02 05:45:04;;;;;;;16.65;8.23;;;;;;;-2.00;62.80;96909.56;4892271;29;20052;-78
2022/03/02 05:47:32;;;;;;;19.48;8.73;;;;;;;-2.16;63.38;96911.00;4893463;29;20056;-78
2022/03/02 05:49:58;;;;;;;16.88;8.00;;;;;;;-2.18;63.58;96916.56;4892638;29;20068;-77
2022/03/02 05:52:25;;;;;;;13.82;7.53;;;;;;;-2.12;63.60;96915.66;4891764;29;20056;-79
2022/03/02 05:54:52;;;;;;;15.43;7.72;;;;;;;-2.09;63.97;96925.06;4892370;29;20053;-79
2022/03/02 05:57:18;;;;;;;16.52;8.43;;;;;;;-2.09;64.00;96922.41;4891922;29;20520;-79
2022/03/02 05:59:45;;;;;;;15.70;8.15;;;;;;;-2.06;64.56;96927.31;4892934;29;20063;-79
2022/03/02 06:02:11;;;;;;;15.60;7.50;;;;;;;-2.06;64.62;96929.97;4891100;29;20048;-79
2022/03/02 06:04:39;;;;;;;13.00;7.43;;;;;;;-2.02;64.60;96927.69;4893118;29;20057;-79
2022/03/02 06:07:06;;;;;;;13.60;7.32;;;;;;;-1.99;64.58;96920.00;4891069;29;20067;-79
2022/03/02 06:09:33;;;;;;;12.60;7.60;;;;;;;-1.95;64.39;96918.53;4893102;29;20060;-77
2022/03/02 06:12:00;;;;;;;18.88;9.38;;;;;;;-1.93;63.73;96916.47;4893148;29;20062;-77
2022/03/02 06:14:27;;;;;;;18.83;10.45;;;;;;;-1.90;63.31;96916.00;4892122;29;20052;-77
2022/03/02 06:16:54;;;;;;;22.50;10.60;;;;;;;-1.81;63.25;96907.69;4892209;29;20052;-77
2022/03/02 06:19:21;;;;;;;17.20;9.00;;;;;;;-1.76;63.80;96905.97;4891389;29;20056;-77
2022/03/02 06:21:50;;;;;;;19.30;9.98;;;;;;;-1.68;63.74;96902.97;4891408;29;20060;-78
2022/03/02 06:24:17;;;;;;;18.98;10.02;;;;;;;-1.60;63.19;96904.53;4891398;29;20063;-76
2022/03/02 06:26:44;;;;;;;18.35;8.95;;;;;;;-1.59;63.14;96900.81;4892740;29;20044;-77
2022/03/02 06:29:11;;;;;;;19.05;9.77;;;;;;;-1.55;62.90;96902.00;4892054;29;20053;-76
2022/03/02 06:31:38;;;;;;;17.08;9.07;;;;;;;-1.50;62.78;96902.13;4892148;29;20108;-78
2022/03/02 06:34:05;;;;;;;20.20;9.50;;;;;;;-1.44;62.59;96901.22;4891261;29;20052;-77
2022/03/02 06:36:32;;;;;;;18.50;8.55;;;;;;;-1.37;62.59;96899.25;4892492;29;20116;-81
2022/03/02 06:38:59;;;;;;;20.60;8.70;;;;;;;-1.29;62.26;96897.31;4891734;29;20531;-77
2022/03/02 06:41:30;;;;;;;19.42;8.73;;;;;;;-1.24;62.37;96902.78;4890809;29;20056;-77
2022/03/02 06:44:04;;;;;;;18.42;8.43;;;;;;;-1.21;62.38;96896.94;4883578;29;20053;-76
2022/03/02 06:46:34;;;;;;;24.73;10.23;;;;;;;-1.18;62.43;96893.84;4890454;29;20070;-76
2022/03/02 06:49:06;;;;;;;29.33;12.60;;;;;;;-1.12;62.54;96896.38;4890725;29;20067;-76
2022/03/02 06:51:33;;;;;;;24.23;10.73;;;;;;;-1.06;62.55;96891.97;4889981;29;20063;-76
2022/03/02 06:54:04;;;;;;;19.13;9.38;;;;;;;-1.03;62.49;96899.56;4892200;29;20500;-77
2022/03/02 06:56:39;;;;;;;16.88;8.90;;;;;;;-0.99;62.16;96898.06;4891476;29;20044;-79
2022/03/02 06:59:09;;;;;;;18.58;8.80;;;;;;;-0.97;61.87;96898.63;4891502;29;20066;-77
2022/03/02 07:01:36;;;;;;;18.52;9.05;;;;;;;-0.93;61.62;96905.13;4891568;29;20432;-77
2022/03/02 07:04:02;;;;;;;17.60;8.93;;;;;;;-0.88;61.72;96902.59;4890487;29;20415;-77
2022/03/02 07:06:30;;;;;;;16.67;7.95;;;;;;;-0.85;60.79;96906.66;4891913;29;20427;-77
2022/03/02 07:08:57;;;;;;;18.00;8.68;;;;;;;-0.81;60.77;96902.47;4890433;29;20057;-77
2022/03/02 07:11:25;;;;;;;12.80;7.03;;;;;;;-0.74;60.91;96900.47;4890768;29;20051;-77
2022/03/02 07:13:52;;;;;;;18.25;8.02;;;;;;;-0.69;61.26;96897.09;4890758;29;20048;-76
2022/03/02 07:16:21;;;;;;;17.45;7.82;;;;;;;-0.58;60.75;96896.28;4891349;29;20056;-76
2022/03/02 07:18:50;;;;;;;16.98;8.70;;;;;;;-0.47;60.73;96908.03;4890740;29;20427;-77
2022/03/02 07:21:17;;;;;;;15.32;8.60;;;;;;;-0.31;60.44;96900.13;4890578;29;20049;-76
2022/03/02 07:23:55;;;;;;;16.33;8.38;;;;;;;-0.15;59.72;96895.09;4891290;29;20080;-77
2022/03/02 07:26:22;;;;;;;19.50;9.55;;;;;;;-0.04;58.46;96891.56;4890460;29;20093;-77
2022/03/02 07:28:51;;;;;;;14.18;7.80;;;;;;;0.02;57.73;96890.59;4891458;29;20049;-81
2022/03/02 07:31:20;;;;;;;17.30;8.35;;;;;;;0.11;57.53;96894.53;4889949;29;20071;-77
2022/03/02 07:33:48;;;;;;;14.05;7.95;;;;;;;0.23;57.78;96892.63;4895188;29;20690;-76
2022/03/02 07:36:20;;;;;;;16.52;8.40;;;;;;;0.36;57.78;96896.06;4894119;29;20048;-76
2022/03/02 07:38:47;;;;;;;19.52;9.30;;;;;;;0.47;57.24;96896.03;4895098;29;20045;-76
2022/03/02 07:41:15;;;;;;;16.65;9.27;;;;;;;0.65;58.11;96892.31;4893667;29;20421;-76
2022/03/02 07:43:42;;;;;;;15.70;8.30;;;;;;;0.75;56.60;96894.34;4894992;29;20117;-76
2022/03/02 07:46:12;;;;;;;17.63;9.02;;;;;;;0.88;55.79;96887.84;4894406;29;20494;-76
2022/03/02 07:48:39;;;;;;;18.63;8.55;;;;;;;1.02;55.75;96894.53;4894404;29;20076;-76
2022/03/02 07:51:07;;;;;;;17.30;8.27;;;;;;;1.13;54.93;96893.63;4894607;29;20057;-76
2022/03/02 07:53:40;;;;;;;17.17;9.00;;;;;;;1.23;54.84;96896.47;4893916;29;20052;-76
2022/03/02 07:56:09;;;;;;;21.65;10.18;;;;;;;1.35;54.59;96907.09;4894928;29;20056;-76
2022/03/02 07:58:38;;;;;;;15.20;8.80;;;;;;;1.45;54.43;96904.56;4893850;29;20522;-76
2022/03/02 08:01:05;;;;;;;16.95;8.50;;;;;;;1.58;54.14;96903.44;4894098;29;20060;-76
2022/03/02 08:03:38;;;;;;;16.60;8.98;;;;;;;1.74;53.72;96901.78;4894326;29;20495;-77
2022/03/02 08:06:05;;;;;;;20.25;8.85;;;;;;;1.92;53.48;96904.16;4893851;29;20619;-76
2022/03/02 08:08:32;;;;;;;16.95;9.20;;;;;;;2.04;53.33;96901.34;4894799;29;20055;-76
2022/03/02 08:10:58;;;;;;;17.58;8.98;;;;;;;2.12;52.60;96897.41;4893397;29;20056;-76
2022/03/02 08:13:25;;;;;;;14.30;8.48;;;;;;;2.22;52.76;96887.59;4894091;29;20401;-76
2022/03/02 08:15:52;;;;;;;17.63;9.30;;;;;;;2.20;52.49;96891.59;4894153;29;20064;-76
2022/03/02 08:18:19;;;;;;;15.30;8.55;;;;;;;2.34;52.54;96898.19;4894236;29;20057;-77
2022/03/02 08:20:50;;;;;;;16.67;8.70;;;;;;;2.54;52.38;96886.84;4893585;29;20112;-77
2022/03/02 08:23:19;;;;;;;15.35;8.40;;;;;;;2.73;52.44;96876.56;4893364;29;20052;-76
2022/03/02 08:25:47;;;;;;;18.65;9.75;;;;;;;2.94;52.14;96888.31;4893963;29;20045;-76
2022/03/02 08:28:15;;;;;;;15.13;8.75;;;;;;;3.11;51.00;96888.97;4893464;29;20404;-77
2022/03/02 08:30:43;;;;;;;18.35;9.35;;;;;;;3.29;50.09;96885.91;4894140;29;20041;-76
2022/03/02 08:33:10;;;;;;;20.83;9.07;;;;;;;3.47;49.92;96883.88;4892589;29;20057;-76
2022/03/02 08:35:40;;;;;;;15.90;8.98;;;;;;;3.52;48.96;96878.50;4894568;29;20060;-76
2022/03/02 08:38:10;;;;;;;18.17;9.00;;;;;;;3.50;49.11;96870.69;4893068;29;20048;-76
2022/03/02 08:40:38;;;;;;;20.17;9.35;;;;;;;3.56;48.10;96868.84;4894454;29;20049;-75
2022/03/02 08:43:06;;;;;;;17.73;8.35;;;;;;;3.62;48.79;96857.03;4892017;29;20053;-75
2022/03/02 08:45:33;;;;;;;17.75;9.38;;;;;;;3.71;48.75;96860.84;4894152;29;20044;-75
2022/03/02 08:48:01;;;;;;;18.77;9.30;;;;;;;3.82;48.08;96857.13;4894110;29;20056;-75
2022/03/02 08:50:28;;;;;;;15.70;8.88;;;;;;;3.88;49.31;96856.09;4893440;29;20047;-76
2022/03/02 08:52:56;;;;;;;16.00;8.70;;;;;;;4.04;48.82;96859.66;4893501;29;20052;-76
2022/03/02 08:55:25;;;;;;;17.45;9.00;;;;;;;4.33;49.17;96851.94;4892560;29;20053;-76
2022/03/02 08:57:53;;;;;;;17.05;9.32;;;;;;;4.76;47.94;96855.25;4894165;29;20053;-76
2022/03/02 09:00:20;;;;;;;16.02;9.30;;;;;;;5.04;46.46;96851.19;4892666;29;20055;-75
2022/03/02 09:02:47;;;;;;;17.00;8.98;;;;;;;5.13;45.76;96851.47;4893371;29;20721;-75
2022/03/02 09:05:14;;;;;;;16.63;8.90;;;;;;;5.10;45.12;96849.31;4892610;29;20056;-77
2022/03/02 09:07:42;;;;;;;17.85;9.50;;;;;;;5.18;46.32;96851.47;4894021;29;20080;-75
2022/03/02 09:10:09;;;;;;;18.48;9.50;;;;;;;5.22;46.14;96847.16;4892727;29;20061;-76
2022/03/02 09:12:37;;;;;;;21.02;9.80;;;;;;;5.26;45.52;96837.41;4895858;29;20045;-75
2022/03/02 09:15:04;;;;;;;22.60;9.93;;;;;;;5.22;45.62;96830.97;4893108;29;20056;-76
2022/03/02 09:17:30;;;;;;;14.70;8.38;;;;;;;5.27;44.52;96830.94;4893293;29;20056;-75
2022/03/02 09:19:58;;;;;;;18.42;9.55;;;;;;;5.21;44.19;96832.03;4893828;29;20067;-75
2022/03/02 09:22:26;;;;;;;21.35;9.85;;;;;;;5.15;45.05;96825.00;4892011;29;20048;-76
2022/03/02 09:24:53;;;;;;;17.20;8.95;;;;;;;5.20;46.35;96833.09;4893834;29;20064;-75
2022/03/02 09:27:21;;;;;;;18.33;8.98;;;;;;;5.28;44.92;96827.16;4892402;29;20052;-75
2022/03/02 09:29:50;;;;;;;16.67;9.38;;;;;;;5.21;44.74;96823.91;4893838;29;20049;-75
2022/03/02 09:32:17;;;;;;;14.82;8.77;;;;;;;5.22;44.54;96826.38;4892008;29;20068;-75
2022/03/02 09:34:48;;;;;;;16.20;9.05;;;;;;;5.48;44.51;96820.91;4893217;29;20064;-75
2022/03/02 09:37:16;;;;;;;18.10;8.20;;;;;;;5.54;43.92;96827.94;4893050;29;20044;-75
2022/03/02 09:39:44;;;;;;;14.85;8.43;;;;;;;5.64;43.70;96824.41;4894422;29;20056;-75
2022/03/02 09:42:13;;;;;;;16.98;8.20;;;;;;;5.74;42.81;96822.47;4891806;29;20056;-76
2022/03/02 09:44:42;;;;;;;15.75;8.93;;;;;;;5.92;42.87;96821.06;4892480;29;20044;-75
2022/03/02 09:47:16;;;;;;;15.90;8.48;;;;;;;6.02;43.11;96822.94;4893150;29;20720;-75
2022/03/02 09:49:48;;;;;;;15.98;8.60;;;;;;;6.14;42.19;96826.13;4892732;29;20058;-76
2022/03/02 09:52:19;;;;;;;14.68;9.13;;;;;;;6.26;42.77;96834.72;4892397;29;20056;-76
2022/03/02 09:54:47;;;;;;;13.63;8.70;;;;;;;6.22;42.69;96832.84;4892381;29;20049;-75
2022/03/02 09:57:18;;;;;;;18.05;8.35;;;;;;;6.32;42.15;96826.56;4892251;29;20529;-75
2022/03/02 09:59:51;;;;;;;16.88;9.60;;;;;;;6.34;42.88;96825.19;4893086;29;20059;-75
2022/03/02 10:02:30;;;;;;;16.50;9.18;;;;;;;6.38;42.76;96826.28;4891476;29;20057;-75
2022/03/02 10:05:03;;;;;;;19.95;9.50;;;;;;;6.45;43.58;96820.53;4885847;29;20064;-75
2022/03/02 10:07:34;;;;;;;15.23;8.73;;;;;;;6.60;43.70;96825.06;4892201;29;20105;-74
2022/03/02 10:10:07;;;;;;;15.73;8.93;;;;;;;6.62;43.13;96830.97;4892555;29;20535;-76
2022/03/02 10:12:34;;;;;;;17.37;9.17;;;;;;;6.81;40.70;96823.81;4894044;29;20044;-75
2022/03/02 10:15:02;;;;;;;16.05;9.13;;;;;;;6.71;41.79;96818.47;4892124;29;20084;-76
2022/03/02 10:17:33;;;;;;;15.23;8.60;;;;;;;6.71;40.70;96813.06;4892339;29;20041;-75
2022/03/02 10:20:04;;;;;;;17.77;8.80;;;;;;;6.84;42.50;96808.91;4893131;29;20052;-75
2022/03/02 10:22:48;;;;;;;13.45;7.88;;;;;;;6.99;40.78;96814.19;4891830;29;20531;-76
2022/03/02 10:25:16;;;;;;;16.42;8.40;;;;;;;7.11;41.18;96811.13;4891147;29;20083;-76
2022/03/02 10:28:00;;;;;;;17.05;9.43;;;;;;;7.19;38.88;96813.22;4892587;29;20056;-76
2022/03/02 10:30:32;;;;;;;16.00;8.77;;;;;;;7.26;38.80;96816.41;4892092;29;20048;-75
2022/03/02 10:33:17;;;;;;;16.38;9.13;;;;;;;7.22;38.66;96823.50;4891605;29;20136;-75
2022/03/02 10:35:51;;;;;;;13.48;7.55;;;;;;;7.20;39.19;96812.91;4892568;29;20040;-75
2022/03/02 10:38:39;;;;;;;17.05;9.32;;;;;;;7.18;39.23;96812.41;4891179;29;20060;-75
2022/03/02 10:41:09;;;;;;;14.25;8.60;;;;;;;7.29;39.66;96807.69;4894078;29;20876;-76
2022/03/02 10:43:41;;;;;;;15.77;8.55;;;;;;;7.36;39.95;96807.34;4891792;29;20115;-75
2022/03/02 10:46:11;;;;;;;14.98;8.05;;;;;;;7.44;39.62;96809.47;4891558;29;20057;-74
2022/03/02 10:48:50;;;;;;;15.40;8.63;;;;;;;7.55;40.36;96798.22;4892471;29;20048;-77
2022/03/02 10:51:20;;;;;;;22.35;11.45;;;;;;;7.57;40.17;96797.94;4891066;29;20044;-76
2022/03/02 10:53:52;;;;;;;16.05;9.73;;;;;;;7.62;40.60;96800.56;4892045;29;20061;-75
2022/03/02 10:56:21;;;;;;;21.15;10.57;;;;;;;7.68;41.17;96798.66;4885787;29;20045;-76
2022/03/02 10:58:50;;;;;;;14.65;9.35;;;;;;;7.76;40.85;96787.16;4873927;29;20662;-75
2022/03/02 11:01:18;;;;;;;22.30;9.85;;;;;;;7.82;40.23;96780.56;4872461;29;20053;-75
2022/03/02 11:03:46;;;;;;;15.93;9.63;;;;;;;7.92;39.71;96780.44;4873310;29;20052;-75
2022/03/02 11:06:12;;;;;;;20.35;9.32;;;;;;;7.94;40.49;96775.56;4873022;29;20053;-76
2022/03/02 11:08:42;;;;;;;18.58;9.80;;;;;;;7.95;40.67;96779.06;4872804;29;20045;-75
2022/03/02 11:11:10;;;;;;;19.30;10.43;;;;;;;7.89;39.05;96772.91;4880033;29;20048;-76
2022/03/02 11:13:37;;;;;;;18.48;9.98;;;;;;;7.77;40.10;96769.78;4891087;29;20667;-75
2022/03/02 11:16:06;;;;;;;21.85;9.38;;;;;;;7.74;40.29;96759.53;4891834;29;20051;-75
2022/03/02 11:18:36;;;;;;;18.42;8.88;;;;;;;7.75;40.26;96761.16;4891452;29;20132;-77
2022/03/02 11:21:06;;;;;;;18.70;10.75;;;;;;;7.83;41.69;96757.81;4891519;29;20056;-75
2022/03/02 11:23:35;;;;;;;18.02;10.32;;;;;;;7.92;39.50;96760.66;4891134;29;20063;-75
2022/03/02 11:26:07;;;;;;;17.77;9.07;;;;;;;7.96;39.22;96751.66;4891562;29;20053;-74
2022/03/02 11:28:35;;;;;;;17.50;9.38;;;;;;;8.17;38.71;96751.38;4891461;29;20137;-76
2022/03/02 11:31:05;;;;;;;14.45;9.20;;;;;;;8.17;38.90;96745.97;4890373;29;20511;-74